createdAt,value
2023-01-29T00:02:17.983Z,95756.31
2023-01-29T00:04:44.688Z,95736.00
2023-01-29T00:07:11.429Z,95740.38
2023-01-29T00:09:38.090Z,95733.72
2023-01-29T00:12:04.803Z,95732.31
2023-01-29T00:14:31.475Z,95731.13
2023-01-29T00:16:58.178Z,95740.19
2023-01-29T00:19:25.985Z,95738.13
2023-01-29T00:21:52.663Z,95733.00
2023-01-29T00:24:22.074Z,95739.25
2023-01-29T00:26:48.747Z,95735.69
2023-01-29T00:29:15.491Z,95731.19
2023-01-29T00:31:45.429Z,95736.66
2023-01-29T00:34:12.109Z,95737.78
2023-01-29T00:36:38.886Z,95731.75
2023-01-29T00:39:05.564Z,95736.91
2023-01-29T00:41:33.937Z,95731.44
2023-01-29T00:44:01.948Z,95734.31
2023-01-29T00:46:28.608Z,95721.22
2023-01-29T00:48:55.285Z,95727.13
2023-01-29T00:51:21.958Z,95729.00
2023-01-29T00:53:51.707Z,95735.34
2023-01-29T00:56:18.350Z,95729.41
2023-01-29T00:58:45.009Z,95730.53
2023-01-29T01:01:11.698Z,95741.75
2023-01-29T01:03:38.361Z,95739.91
2023-01-29T01:06:06.913Z,95740.19
2023-01-29T01:08:33.635Z,95735.44
2023-01-29T01:11:06.346Z,95733.09
2023-01-29T01:13:34.535Z,95748.25
2023-01-29T01:16:01.323Z,95739.91
2023-01-29T01:18:31.458Z,95743.47
2023-01-29T01:20:58.701Z,95746.72
2023-01-29T01:23:25.908Z,95755.22
2023-01-29T01:25:52.556Z,95746.88
2023-01-29T01:28:19.160Z,95752.88
2023-01-29T01:30:46.044Z,95756.06
2023-01-29T01:33:13.021Z,95762.00
2023-01-29T01:35:40.238Z,95753.59
2023-01-29T01:38:06.875Z,95764.34
2023-01-29T01:40:33.538Z,95767.19
2023-01-29T01:43:01.466Z,95765.88
2023-01-29T01:45:34.231Z,95764.50
2023-01-29T01:48:13.658Z,95771.31
2023-01-29T01:50:46.530Z,95774.56
2023-01-29T01:53:20.319Z,95769.88
2023-01-29T01:56:02.157Z,95777.16
2023-01-29T01:58:36.993Z,95782.75
2023-01-29T02:01:09.226Z,95787.91
2023-01-29T02:03:43.731Z,95775.09
2023-01-29T02:06:11.367Z,95787.41
2023-01-29T02:09:05.836Z,95783.28
2023-01-29T02:11:32.617Z,95787.63
2023-01-29T02:13:59.637Z,95786.59
2023-01-29T02:16:26.315Z,95804.16
2023-01-29T02:18:53.332Z,95807.63
2023-01-29T02:21:52.255Z,95794.47
2023-01-29T02:24:56.366Z,95804.47
2023-01-29T02:28:11.012Z,95817.69
2023-01-29T02:30:50.543Z,95823.94
2023-01-29T02:33:31.528Z,95819.38
2023-01-29T02:36:13.244Z,95835.22
2023-01-29T02:39:00.687Z,95837.97
2023-01-29T02:42:00.950Z,95841.78
2023-01-29T02:44:27.524Z,95831.34
2023-01-29T02:47:28.889Z,95841.47
2023-01-29T02:50:25.689Z,95840.50
2023-01-29T02:52:59.788Z,95839.56
2023-01-29T02:56:07.458Z,95849.72
2023-01-29T02:58:44.100Z,95843.72
2023-01-29T03:01:37.128Z,95836.28
2023-01-29T03:04:18.827Z,95836.94
2023-01-29T03:06:54.797Z,95829.28
2023-01-29T03:09:36.510Z,95843.34
2023-01-29T03:12:26.116Z,95845.13
2023-01-29T03:14:52.874Z,95845.13
2023-01-29T03:17:26.957Z,95845.50
2023-01-29T03:19:54.433Z,95849.31
2023-01-29T03:22:22.517Z,95843.72
2023-01-29T03:25:02.930Z,95838.31
2023-01-29T03:27:57.399Z,95842.69
2023-01-29T03:30:28.692Z,95842.94
2023-01-29T03:32:59.165Z,95843.09
2023-01-29T03:35:31.107Z,95835.59
2023-01-29T03:37:57.825Z,95847.19
2023-01-29T03:40:25.428Z,95842.81
2023-01-29T03:43:16.443Z,95849.09
2023-01-29T03:46:00.660Z,95836.41
2023-01-29T03:48:42.714Z,95839.81
2023-01-29T03:51:30.063Z,95842.00
2023-01-29T03:54:18.616Z,95843.41
2023-01-29T03:57:10.796Z,95841.66
2023-01-29T03:59:55.369Z,95836.72
2023-01-29T04:02:30.059Z,95841.91
2023-01-29T04:05:05.608Z,95834.97
2023-01-29T04:07:35.221Z,95836.81
2023-01-29T04:10:16.833Z,95834.13
2023-01-29T04:13:00.917Z,95838.75
2023-01-29T04:15:34.057Z,95844.88
2023-01-29T04:18:02.046Z,95837.50
2023-01-29T04:20:29.232Z,95838.09
2023-01-29T04:22:55.874Z,95838.91
2023-01-29T04:25:27.242Z,95835.63
2023-01-29T04:27:56.727Z,95834.13
2023-01-29T04:30:39.058Z,95839.03
2023-01-29T04:33:29.856Z,95841.13
2023-01-29T04:36:05.252Z,95819.50
2023-01-29T04:38:31.934Z,95831.13
2023-01-29T04:41:11.995Z,95833.84
2023-01-29T04:44:01.472Z,95831.53
2023-01-29T04:47:07.164Z,95830.66
2023-01-29T04:49:36.440Z,95824.41
2023-01-29T04:52:17.751Z,95833.97
2023-01-29T04:54:54.211Z,95829.06
2023-01-29T04:57:25.744Z,95836.81
2023-01-29T05:00:10.087Z,95838.59
2023-01-29T05:02:39.958Z,95836.78
2023-01-29T05:05:09.895Z,95829.56
2023-01-29T05:07:40.500Z,95835.16
2023-01-29T05:10:12.192Z,95833.69
2023-01-29T05:12:43.254Z,95843.91
2023-01-29T05:15:17.842Z,95847.59
2023-01-29T05:17:44.503Z,95847.41
2023-01-29T05:20:12.448Z,95842.91
2023-01-29T05:22:42.002Z,95850.47
2023-01-29T05:25:35.036Z,95841.63
2023-01-29T05:28:01.738Z,95854.09
2023-01-29T05:30:28.375Z,95851.97
2023-01-29T05:32:55.073Z,95850.91
2023-01-29T05:35:21.712Z,95866.03
2023-01-29T05:37:48.384Z,95869.53
2023-01-29T05:40:15.640Z,95871.97
2023-01-29T05:42:42.447Z,95874.06
2023-01-29T05:45:09.549Z,95877.13
2023-01-29T05:47:36.202Z,95886.41
2023-01-29T05:50:02.964Z,95890.22
2023-01-29T05:52:29.580Z,95894.59
2023-01-29T05:54:56.185Z,95896.81
2023-01-29T05:57:22.835Z,95902.50
2023-01-29T05:59:49.484Z,95907.81
2023-01-29T06:02:16.095Z,95913.03
2023-01-29T06:04:42.781Z,95913.97
2023-01-29T06:07:09.405Z,95922.91
2023-01-29T06:09:36.117Z,95924.75
2023-01-29T06:12:03.624Z,95917.56
2023-01-29T06:14:30.292Z,95924.38
2023-01-29T06:16:56.928Z,95937.00
2023-01-29T06:19:23.579Z,95940.44
2023-01-29T06:21:50.225Z,95933.09
2023-01-29T06:24:16.888Z,95940.81
2023-01-29T06:26:43.617Z,95941.38
2023-01-29T06:29:10.264Z,95946.78
2023-01-29T06:31:39.114Z,95944.00
2023-01-29T06:34:08.115Z,95949.63
2023-01-29T06:36:35.144Z,95958.00
2023-01-29T06:39:01.902Z,95962.69
2023-01-29T06:41:28.641Z,95961.91
2023-01-29T06:43:55.287Z,95968.50
2023-01-29T06:46:21.915Z,95974.94
2023-01-29T06:48:49.176Z,95973.91
2023-01-29T06:51:15.800Z,95977.44
2023-01-29T06:53:46.449Z,95976.09
2023-01-29T06:56:13.621Z,95978.31
2023-01-29T06:58:40.260Z,95982.06
2023-01-29T07:01:09.924Z,95973.31
2023-01-29T07:03:37.124Z,95974.28
2023-01-29T07:06:05.397Z,95974.28
2023-01-29T07:08:36.846Z,95984.50
2023-01-29T07:11:04.356Z,95987.97
2023-01-29T07:13:31.045Z,95994.78
2023-01-29T07:16:02.197Z,95993.25
2023-01-29T07:18:29.625Z,95999.94
2023-01-29T07:20:56.985Z,95997.13
2023-01-29T07:23:24.428Z,95990.50
2023-01-29T07:25:51.629Z,95989.00
2023-01-29T07:28:19.729Z,95994.56
2023-01-29T07:30:46.597Z,95993.47
2023-01-29T07:33:13.226Z,95985.47
2023-01-29T07:35:42.323Z,95986.53
2023-01-29T07:38:11.434Z,95991.22
2023-01-29T07:40:38.131Z,95982.31
2023-01-29T07:43:07.486Z,95975.03
2023-01-29T07:45:36.574Z,95976.41
2023-01-29T07:48:04.379Z,95970.00
2023-01-29T07:50:32.023Z,95972.44
2023-01-29T07:52:58.864Z,95976.22
2023-01-29T07:55:25.559Z,95968.03
2023-01-29T07:57:59.751Z,95963.84
2023-01-29T08:00:27.399Z,95968.34
2023-01-29T08:02:54.207Z,95979.97
2023-01-29T08:05:20.872Z,95977.91
2023-01-29T08:08:05.756Z,95968.19
2023-01-29T08:10:34.082Z,95967.41
2023-01-29T08:13:02.195Z,95964.25
2023-01-29T08:15:30.060Z,95973.53
2023-01-29T08:17:58.255Z,95977.66
2023-01-29T08:20:43.788Z,95981.19
2023-01-29T08:23:14.937Z,95976.28
2023-01-29T08:25:42.228Z,95973.31
2023-01-29T08:28:08.987Z,95975.53
2023-01-29T08:30:37.790Z,95985.56
2023-01-29T08:33:04.638Z,95985.03
2023-01-29T08:35:31.483Z,95984.97
2023-01-29T08:38:01.040Z,95979.22
2023-01-29T08:40:30.296Z,95972.59
2023-01-29T08:43:02.938Z,95976.50
2023-01-29T08:45:34.558Z,95983.28
2023-01-29T08:48:02.212Z,95984.41
2023-01-29T08:50:28.925Z,95979.59
2023-01-29T08:52:59.845Z,95981.75
2023-01-29T08:55:27.940Z,95994.81
2023-01-29T08:57:55.502Z,95993.16
2023-01-29T09:00:22.219Z,95997.91
2023-01-29T09:02:49.069Z,95996.34
2023-01-29T09:05:16.056Z,95983.50
2023-01-29T09:07:42.923Z,95992.44
2023-01-29T09:10:10.336Z,95992.06
2023-01-29T09:12:36.988Z,95991.84
2023-01-29T09:15:04.080Z,95988.06
2023-01-29T09:17:30.773Z,95991.28
2023-01-29T09:19:57.689Z,95996.25
2023-01-29T09:22:24.409Z,95999.28
2023-01-29T09:24:51.023Z,95996.09
2023-01-29T09:27:17.731Z,95999.09
2023-01-29T09:29:44.385Z,96004.91
2023-01-29T09:32:11.021Z,96009.50
2023-01-29T09:34:37.721Z,96014.06
2023-01-29T09:37:04.510Z,96003.84
2023-01-29T09:39:31.137Z,96008.22
2023-01-29T09:42:11.035Z,96020.31
2023-01-29T09:45:06.675Z,96022.41
2023-01-29T09:47:35.918Z,96021.66
2023-01-29T09:50:06.695Z,96023.81
2023-01-29T09:52:46.749Z,96024.56
2023-01-29T09:55:19.548Z,96024.94
2023-01-29T09:57:48.304Z,96034.31
2023-01-29T10:00:42.845Z,96041.13
2023-01-29T10:03:25.284Z,96043.91
2023-01-29T10:05:57.841Z,96046.34
2023-01-29T10:09:05.078Z,96050.72
2023-01-29T10:12:10.274Z,96050.84
2023-01-29T10:15:11.895Z,96054.16
2023-01-29T10:17:38.477Z,96065.63
2023-01-29T10:20:36.246Z,96059.41
2023-01-29T10:23:02.922Z,96061.09
2023-01-29T10:25:36.770Z,96063.91
2023-01-29T10:28:03.510Z,96065.34
2023-01-29T10:30:46.284Z,96061.25
2023-01-29T10:33:21.949Z,96059.66
2023-01-29T10:35:56.921Z,96067.50
2023-01-29T10:38:39.982Z,96061.75
2023-01-29T10:41:30.693Z,96062.34
2023-01-29T10:44:12.614Z,96062.56
2023-01-29T10:46:51.520Z,96061.78
2023-01-29T10:50:06.197Z,96066.84
2023-01-29T10:53:10.958Z,96058.84
2023-01-29T10:55:53.581Z,96059.13
2023-01-29T10:58:38.787Z,96056.31
2023-01-29T11:01:05.442Z,96056.53
2023-01-29T11:03:33.887Z,96048.03
2023-01-29T11:06:17.315Z,96054.59
2023-01-29T11:08:51.652Z,96056.16
2023-01-29T11:11:21.580Z,96051.88
2023-01-29T11:13:59.529Z,96053.50
2023-01-29T11:16:30.385Z,96044.53
2023-01-29T11:18:59.543Z,96043.31
2023-01-29T11:21:29.703Z,96054.09
2023-01-29T11:24:14.939Z,96047.38
2023-01-29T11:26:44.034Z,96049.63
2023-01-29T11:29:32.096Z,96051.97
2023-01-29T11:32:03.094Z,96056.81
2023-01-29T11:34:29.770Z,96050.50
2023-01-29T11:37:16.720Z,96046.25
2023-01-29T11:39:45.793Z,96051.78
2023-01-29T11:42:21.251Z,96045.28
2023-01-29T11:44:48.543Z,96038.09
2023-01-29T11:47:30.340Z,96037.53
2023-01-29T11:50:02.725Z,96032.88
2023-01-29T11:52:40.497Z,96038.28
2023-01-29T11:55:17.617Z,96032.81
2023-01-29T11:57:51.168Z,96033.19
2023-01-29T12:00:24.913Z,96029.66
2023-01-29T12:03:01.040Z,96031.22
2023-01-29T12:05:28.355Z,96025.94
2023-01-29T12:07:58.661Z,96026.81
2023-01-29T12:10:33.078Z,96027.34
2023-01-29T12:13:26.401Z,96024.63
2023-01-29T12:16:10.103Z,96018.13
2023-01-29T12:18:46.625Z,96013.88
2023-01-29T12:21:56.057Z,96009.94
2023-01-29T12:24:34.241Z,96011.41
2023-01-29T12:27:25.277Z,96008.47
2023-01-29T12:30:17.538Z,95999.50
2023-01-29T12:32:52.870Z,95996.22
2023-01-29T12:35:28.363Z,95984.75
2023-01-29T12:37:59.589Z,95990.28
2023-01-29T12:40:43.007Z,95991.41
2023-01-29T12:43:16.515Z,95993.75
2023-01-29T12:45:47.955Z,95984.09
2023-01-29T12:48:21.743Z,95985.59
2023-01-29T12:50:55.532Z,95983.06
2023-01-29T12:53:34.871Z,95980.34
2023-01-29T12:56:42.746Z,95977.50
2023-01-29T12:59:15.048Z,95968.22
2023-01-29T13:01:57.765Z,95966.03
2023-01-29T13:04:52.070Z,95974.94
2023-01-29T13:07:28.217Z,95961.09
2023-01-29T13:10:07.533Z,95967.91
2023-01-29T13:12:38.261Z,95968.75
2023-01-29T13:15:22.308Z,95965.47
2023-01-29T13:17:58.287Z,95960.06
2023-01-29T13:20:37.447Z,95971.69
2023-01-29T13:23:22.726Z,95966.91
2023-01-29T13:25:54.237Z,95971.03
2023-01-29T13:28:25.591Z,95967.75
2023-01-29T13:31:10.805Z,95970.34
2023-01-29T13:33:40.881Z,95970.97
2023-01-29T13:36:18.484Z,95975.38
2023-01-29T13:38:45.345Z,95971.66
2023-01-29T13:41:14.685Z,95969.72
2023-01-29T13:43:48.841Z,95980.09
2023-01-29T13:46:19.140Z,95984.34
2023-01-29T13:48:50.326Z,95975.28
2023-01-29T13:51:22.764Z,95971.00
2023-01-29T13:54:03.171Z,95977.22
2023-01-29T13:56:29.792Z,95980.19
2023-01-29T13:58:57.691Z,95968.41
2023-01-29T14:01:49.485Z,95967.44
2023-01-29T14:04:19.032Z,95967.09
2023-01-29T14:06:49.468Z,95963.94
2023-01-29T14:09:32.465Z,95965.28
2023-01-29T14:11:59.934Z,95967.09
2023-01-29T14:14:56.751Z,95962.56
2023-01-29T14:17:27.169Z,95970.66
2023-01-29T14:20:06.659Z,95975.41
2023-01-29T14:22:34.771Z,95978.41
2023-01-29T14:25:05.124Z,95970.00
2023-01-29T14:27:33.732Z,95968.41
2023-01-29T14:30:09.641Z,95981.31
2023-01-29T14:32:40.345Z,95979.16
2023-01-29T14:35:25.226Z,95977.72
2023-01-29T14:37:57.652Z,95978.53
2023-01-29T14:40:28.920Z,95975.59
2023-01-29T14:42:58.558Z,95986.88
2023-01-29T14:45:28.088Z,95984.34
2023-01-29T14:47:56.156Z,95978.88
2023-01-29T14:50:28.746Z,95981.81
2023-01-29T14:53:13.851Z,95980.50
2023-01-29T14:55:42.839Z,95981.22
2023-01-29T14:58:41.985Z,95992.56
2023-01-29T15:01:25.614Z,95990.34
2023-01-29T15:04:14.503Z,95990.25
2023-01-29T15:06:52.401Z,95992.19
2023-01-29T15:09:37.034Z,95989.25
2023-01-29T15:12:06.873Z,95982.50
2023-01-29T15:14:41.838Z,95981.25
2023-01-29T15:17:52.730Z,95982.00
2023-01-29T15:20:31.285Z,95974.06
2023-01-29T15:22:58.461Z,95968.53
2023-01-29T15:25:28.027Z,95970.03
2023-01-29T15:27:58.339Z,95975.22
2023-01-29T15:30:32.885Z,95966.09
2023-01-29T15:33:00.937Z,95958.94
2023-01-29T15:35:39.547Z,95954.00
2023-01-29T15:38:18.991Z,95949.78
2023-01-29T15:40:57.468Z,95964.78
2023-01-29T15:43:27.912Z,95959.16
2023-01-29T15:46:06.951Z,95961.78
2023-01-29T15:48:42.226Z,95953.50
2023-01-29T15:51:16.724Z,95965.75
2023-01-29T15:54:03.916Z,95963.03
2023-01-29T15:56:40.371Z,95964.00
2023-01-29T15:59:19.358Z,95961.19
2023-01-29T16:01:46.205Z,95968.25
2023-01-29T16:04:20.886Z,95963.97
2023-01-29T16:06:49.887Z,95968.22
2023-01-29T16:09:21.794Z,95972.59
2023-01-29T16:11:50.190Z,95967.72
2023-01-29T16:14:23.019Z,95972.00
2023-01-29T16:16:49.725Z,95974.56
2023-01-29T16:19:22.750Z,95981.31
2023-01-29T16:21:58.719Z,95983.31
2023-01-29T16:24:26.874Z,95986.59
2023-01-29T16:27:04.433Z,95980.78
2023-01-29T16:29:35.495Z,95983.75
2023-01-29T16:32:04.084Z,95971.88
2023-01-29T16:34:42.775Z,95976.09
2023-01-29T16:37:33.485Z,95975.19
2023-01-29T16:40:00.171Z,95973.88
2023-01-29T16:42:29.109Z,95981.63
2023-01-29T16:45:01.655Z,95983.59
2023-01-29T16:47:32.375Z,95985.09
2023-01-29T16:50:17.859Z,95985.44
2023-01-29T16:53:12.337Z,95987.88
2023-01-29T16:55:45.172Z,95989.03
2023-01-29T16:58:38.119Z,95991.16
2023-01-29T17:01:11.272Z,95988.03
2023-01-29T17:03:41.031Z,95996.88
2023-01-29T17:06:13.077Z,95991.97
2023-01-29T17:08:43.502Z,95985.91
2023-01-29T17:11:22.869Z,95987.84
2023-01-29T17:13:49.641Z,95996.38
2023-01-29T17:16:22.431Z,95992.44
2023-01-29T17:18:49.326Z,95985.06
2023-01-29T17:21:16.088Z,95988.38
2023-01-29T17:23:43.324Z,95996.47
2023-01-29T17:26:13.492Z,95995.78
2023-01-29T17:28:41.734Z,96004.16
2023-01-29T17:31:09.862Z,96005.13
2023-01-29T17:33:42.823Z,96004.97
2023-01-29T17:36:15.205Z,96007.88
2023-01-29T17:38:42.830Z,96015.38
2023-01-29T17:41:24.536Z,96016.66
2023-01-29T17:43:51.181Z,96009.25
2023-01-29T17:46:19.326Z,96014.53
2023-01-29T17:48:47.066Z,96018.34
2023-01-29T17:51:16.662Z,96022.28
2023-01-29T17:53:46.075Z,96027.03
2023-01-29T17:56:24.707Z,96018.53
2023-01-29T17:58:51.329Z,96022.19
2023-01-29T18:01:17.987Z,96025.44
2023-01-29T18:03:44.748Z,96031.97
2023-01-29T18:06:23.370Z,96034.41
2023-01-29T18:08:49.993Z,96037.72
2023-01-29T18:11:16.721Z,96033.38
2023-01-29T18:13:43.506Z,96035.41
2023-01-29T18:16:10.305Z,96024.00
2023-01-29T18:18:36.987Z,96032.03
2023-01-29T18:21:04.381Z,96034.94
2023-01-29T18:23:31.048Z,96037.31
2023-01-29T18:25:57.801Z,96029.34
2023-01-29T18:28:24.920Z,96024.16
2023-01-29T18:30:52.771Z,96022.13
2023-01-29T18:33:19.600Z,96021.19
2023-01-29T18:35:47.837Z,96021.91
2023-01-29T18:38:14.702Z,96027.13
2023-01-29T18:40:41.484Z,96026.50
2023-01-29T18:43:09.783Z,96024.63
2023-01-29T18:45:36.574Z,96023.03
2023-01-29T18:48:03.401Z,96019.38
2023-01-29T18:50:30.124Z,96025.25
2023-01-29T18:52:59.722Z,96023.75
2023-01-29T18:55:27.906Z,96012.00
2023-01-29T18:58:28.591Z,96009.00
2023-01-29T19:00:42.305Z,96014.31
2023-01-29T19:03:11.251Z,96015.19
2023-01-29T19:05:39.803Z,96011.13
2023-01-29T19:08:06.748Z,96011.97
2023-01-29T19:10:34.060Z,96012.78
2023-01-29T19:13:01.340Z,96016.63
2023-01-29T19:15:29.158Z,96020.31
2023-01-29T19:17:56.679Z,96016.91
2023-01-29T19:20:23.932Z,96018.94
2023-01-29T19:22:50.633Z,96017.63
2023-01-29T19:25:19.849Z,96018.38
2023-01-29T19:27:46.952Z,96017.88
2023-01-29T19:30:16.696Z,96017.53
2023-01-29T19:32:43.438Z,96018.75
2023-01-29T19:35:10.362Z,96024.00
2023-01-29T19:37:37.227Z,96026.50
2023-01-29T19:40:04.608Z,96028.38
2023-01-29T19:42:31.269Z,96031.94
2023-01-29T19:44:57.939Z,96032.75
2023-01-29T19:47:24.638Z,96033.06
2023-01-29T19:49:51.583Z,96043.75
2023-01-29T19:52:18.356Z,96044.69
2023-01-29T19:54:45.047Z,96049.16
2023-01-29T19:57:11.739Z,96047.56
2023-01-29T19:59:38.417Z,96051.81
2023-01-29T20:02:09.278Z,96056.03
2023-01-29T20:04:35.925Z,96052.75
2023-01-29T20:07:02.589Z,96052.69
2023-01-29T20:09:29.304Z,96052.31
2023-01-29T20:11:55.969Z,96056.03
2023-01-29T20:14:22.657Z,96059.88
2023-01-29T20:16:49.260Z,96061.66
2023-01-29T20:19:15.922Z,96064.38
2023-01-29T20:21:45.947Z,96061.59
2023-01-29T20:24:13.358Z,96062.06
2023-01-29T20:26:40.284Z,96063.41
2023-01-29T20:29:06.941Z,96071.22
2023-01-29T20:31:33.695Z,96071.41
2023-01-29T20:34:00.492Z,96067.78
2023-01-29T20:36:27.216Z,96074.63
2023-01-29T20:38:53.825Z,96079.44
2023-01-29T20:41:20.516Z,96081.16
2023-01-29T20:43:47.427Z,96080.41
2023-01-29T20:46:14.325Z,96076.94
2023-01-29T20:48:41.022Z,96077.81
2023-01-29T20:51:14.809Z,96075.75
2023-01-29T20:53:42.451Z,96080.94
2023-01-29T20:56:10.149Z,96078.72
2023-01-29T20:58:38.489Z,96084.78
2023-01-29T21:01:10.117Z,96097.09
2023-01-29T21:03:37.886Z,96092.44
2023-01-29T21:06:05.095Z,96097.63
2023-01-29T21:08:31.752Z,96096.38
2023-01-29T21:10:58.477Z,96098.31
2023-01-29T21:13:25.142Z,96101.03
2023-01-29T21:15:51.946Z,96091.34
2023-01-29T21:18:18.589Z,96096.22
2023-01-29T21:20:45.722Z,96086.41
2023-01-29T21:23:12.348Z,96095.44
2023-01-29T21:25:38.972Z,96091.75
2023-01-29T21:28:06.028Z,96093.13
2023-01-29T21:30:32.946Z,96091.34
2023-01-29T21:33:00.166Z,96093.25
2023-01-29T21:35:26.764Z,96084.34
2023-01-29T21:37:53.403Z,96096.00
2023-01-29T21:40:20.346Z,96097.69
2023-01-29T21:42:47.887Z,96086.13
2023-01-29T21:45:14.890Z,96092.34
2023-01-29T21:47:42.763Z,96093.63
2023-01-29T21:50:13.268Z,96093.47
2023-01-29T21:52:39.971Z,96085.69
2023-01-29T21:55:06.959Z,96089.00
2023-01-29T21:57:33.597Z,96087.19
2023-01-29T22:00:00.304Z,96090.34
2023-01-29T22:02:27.476Z,96080.78
2023-01-29T22:04:54.802Z,96080.81
2023-01-29T22:07:22.996Z,96083.38
2023-01-29T22:09:49.730Z,96078.75
2023-01-29T22:12:16.490Z,96073.53
2023-01-29T22:14:43.111Z,96080.78
2023-01-29T22:17:09.744Z,96070.25
2023-01-29T22:19:36.616Z,96072.69
2023-01-29T22:22:03.261Z,96070.81
2023-01-29T22:24:29.865Z,96071.25
2023-01-29T22:26:56.519Z,96070.28
2023-01-29T22:29:23.207Z,96068.75
2023-01-29T22:31:49.813Z,96062.59
2023-01-29T22:34:16.404Z,96076.56
2023-01-29T22:36:43.128Z,96065.75
2023-01-29T22:39:10.311Z,96059.19
2023-01-29T22:41:36.918Z,96049.56
2023-01-29T22:44:03.595Z,96049.19
2023-01-29T22:46:30.841Z,96048.03
2023-01-29T22:48:57.463Z,96040.16
2023-01-29T22:51:24.188Z,96034.84
2023-01-29T22:53:55.633Z,96030.97
2023-01-29T22:56:25.617Z,96023.00
2023-01-29T22:58:54.043Z,96023.09
2023-01-29T23:01:23.810Z,96014.97
2023-01-29T23:03:50.661Z,96021.09
2023-01-29T23:06:18.245Z,96016.69
2023-01-29T23:08:45.123Z,96007.94
2023-01-29T23:11:15.910Z,96002.09
2023-01-29T23:13:48.711Z,96002.72
2023-01-29T23:16:17.744Z,95996.81
2023-01-29T23:18:48.436Z,95994.06
2023-01-29T23:21:15.049Z,95994.19
2023-01-29T23:23:44.072Z,95993.09
2023-01-29T23:26:12.385Z,95993.78
2023-01-29T23:28:39.047Z,95984.88
2023-01-29T23:31:05.829Z,95985.94
2023-01-29T23:33:32.501Z,95983.13
2023-01-29T23:35:59.268Z,95976.94
2023-01-29T23:38:26.009Z,95984.22
2023-01-29T23:40:52.624Z,95974.91
2023-01-29T23:43:20.378Z,95976.63
2023-01-29T23:45:46.991Z,95972.59
2023-01-29T23:48:13.600Z,95978.72
2023-01-29T23:50:40.202Z,95970.50
2023-01-29T23:53:06.808Z,95958.16
2023-01-29T23:55:33.494Z,95963.19
2023-01-29T23:58:00.134Z,95959.56
